Time;durP1;ratioP1;P1;durP2;ratioP2;P2;SDS_P1;SDS_P2;PMS_P1;PMS_P2;Temp;Humidity;BMP_temperature;BMP_pressure;BME280_temperature;BME280_humidity;BME280_pressure;Samples;Min_cycle;Max_cycle;Signal;HPM_P1;HPM_P2
2023/07/24 00:01:41;;;;;;;8.47;4.50;;;23.70;60.70;;;;;;5084698;28;20475;-77
2023/07/24 00:04:09;;;;;;;9.07;4.63;;;23.70;60.60;;;;;;5084792;28;20460;-78
2023/07/24 00:06:37;;;;;;;7.50;3.93;;;23.70;60.60;;;;;;5081822;28;20460;-78
2023/07/24 00:09:05;;;;;;;8.90;4.40;;;23.70;60.50;;;;;;5083198;28;20447;-78
2023/07/24 00:11:33;;;;;;;9.80;4.83;;;23.70;60.50;;;;;;5081506;28;20461;-78
2023/07/24 00:14:01;;;;;;;8.67;4.60;;;23.70;60.40;;;;;;5081207;28;20921;-79
2023/07/24 00:16:29;;;;;;;9.90;4.70;;;23.60;60.30;;;;;;5090890;28;20468;-77
2023/07/24 00:19:09;;;;;;;10.03;5.30;;;23.60;60.30;;;;;;5084251;28;20498;-77
2023/07/24 00:21:41;;;;;;;7.80;4.47;;;23.60;60.20;;;;;;5084478;28;20476;-78
2023/07/24 00:24:12;;;;;;;9.73;4.87;;;23.60;60.20;;;;;;5078409;28;20454;-78
2023/07/24 00:26:41;;;;;;;11.43;5.93;;;23.50;60.20;;;;;;5080937;28;20948;-78
2023/07/24 00:29:09;;;;;;;9.57;5.40;;;23.50;60.10;;;;;;5081181;28;20544;-78
2023/07/24 00:31:37;;;;;;;9.60;5.40;;;23.50;60.10;;;;;;5076442;28;20835;-78
2023/07/24 00:34:06;;;;;;;9.90;5.20;;;23.50;60.10;;;;;;5083627;28;20547;-78
2023/07/24 00:36:34;;;;;;;8.50;4.80;;;23.50;60.00;;;;;;5097754;28;20473;-78
2023/07/24 00:39:02;;;;;;;10.07;4.80;;;23.50;60.00;;;;;;5078573;28;20488;-78
2023/07/24 00:41:31;;;;;;;10.23;5.23;;;23.50;60.00;;;;;;5096381;28;20468;-78
2023/07/24 00:43:59;;;;;;;9.27;5.20;;;23.50;60.00;;;;;;5086939;28;20551;-78
2023/07/24 00:46:31;;;;;;;10.50;5.20;;;23.40;60.00;;;;;;5093562;28;20560;-78
2023/07/24 00:49:02;;;;;;;8.77;4.67;;;23.40;60.00;;;;;;5085850;28;20535;-78
2023/07/24 00:51:34;;;;;;;9.87;5.43;;;23.30;60.10;;;;;;5087467;28;20476;-78
2023/07/24 00:54:04;;;;;;;9.93;5.20;;;23.20;60.10;;;;;;5087604;28;20448;-78
2023/07/24 00:56:33;;;;;;;8.63;4.90;;;23.20;60.20;;;;;;5081225;28;20452;-79
2023/07/24 00:59:02;;;;;;;9.50;5.13;;;23.20;60.30;;;;;;5087644;28;20484;-78
2023/07/24 01:01:30;;;;;;;9.17;5.20;;;23.20;60.40;;;;;;5086072;28;20518;-78
2023/07/24 01:03:59;;;;;;;9.60;5.70;;;23.20;60.40;;;;;;5088167;28;21169;-79
2023/07/24 01:06:27;;;;;;;9.17;5.40;;;23.10;60.50;;;;;;5084509;28;20452;-80
2023/07/24 01:08:57;;;;;;;10.47;6.83;;;23.00;60.50;;;;;;5096926;28;20466;-77
2023/07/24 01:11:29;;;;;;;10.50;5.90;;;23.00;60.60;;;;;;5085042;28;20451;-77
2023/07/24 01:13:59;;;;;;;9.53;5.70;;;23.00;60.70;;;;;;5088673;28;20496;-79
2023/07/24 01:16:34;;;;;;;14.40;6.83;;;22.90;60.70;;;;;;5085250;28;20886;-78
2023/07/24 01:19:05;;;;;;;11.70;5.43;;;22.90;60.80;;;;;;5097766;28;20460;-78
2023/07/24 01:21:45;;;;;;;11.00;6.30;;;22.90;60.90;;;;;;5102348;27;20450;-79
2023/07/24 01:24:25;;;;;;;11.53;6.70;;;22.90;60.90;;;;;;5093536;28;20908;-78
2023/07/24 01:26:54;;;;;;;11.70;6.03;;;22.90;61.00;;;;;;5087065;28;20464;-78
2023/07/24 01:29:23;;;;;;;10.80;6.20;;;22.90;61.10;;;;;;5088218;28;20486;-79
2023/07/24 01:31:51;;;;;;;11.70;6.57;;;22.90;61.20;;;;;;5104474;27;20568;-78
2023/07/24 01:34:19;;;;;;;11.27;6.37;;;22.80;61.30;;;;;;5086460;28;20472;-77
2023/07/24 01:36:48;;;;;;;12.63;6.93;;;22.80;61.40;;;;;;5081249;28;20863;-78
2023/07/24 01:39:18;;;;;;;11.60;6.30;;;22.70;61.50;;;;;;5081447;28;21074;-78
2023/07/24 01:41:46;;;;;;;10.73;6.40;;;22.70;61.60;;;;;;5084753;28;20458;-77
2023/07/24 01:44:15;;;;;;;10.90;6.60;;;22.70;61.70;;;;;;5080443;28;20449;-77
2023/07/24 01:46:44;;;;;;;11.40;7.00;;;22.60;61.90;;;;;;5087592;28;21041;-78
2023/07/24 01:49:14;;;;;;;10.70;5.87;;;22.60;61.90;;;;;;5079480;28;20450;-78
2023/07/24 01:51:44;;;;;;;11.37;6.43;;;22.60;62.10;;;;;;5088403;28;20480;-78
2023/07/24 01:54:12;;;;;;;12.43;6.10;;;22.50;62.20;;;;;;5084438;28;20464;-77
2023/07/24 01:56:40;;;;;;;9.53;5.93;;;22.50;62.20;;;;;;5084689;28;20539;-77
2023/07/24 01:59:08;;;;;;;10.93;7.10;;;22.50;62.30;;;;;;5088795;28;20523;-78
2023/07/24 02:01:38;;;;;;;21.47;7.10;;;22.50;62.50;;;;;;5086848;28;20503;-78
2023/07/24 02:04:06;;;;;;;11.03;6.10;;;22.40;62.60;;;;;;5083809;28;20976;-80
2023/07/24 02:06:34;;;;;;;9.93;5.93;;;22.40;62.60;;;;;;5086593;28;20445;-78
2023/07/24 02:09:02;;;;;;;12.07;7.30;;;22.30;62.80;;;;;;5080917;28;20802;-78
2023/07/24 02:11:30;;;;;;;10.83;6.20;;;22.30;62.90;;;;;;5083037;28;20536;-78
2023/07/24 02:13:59;;;;;;;10.60;6.03;;;22.30;63.00;;;;;;5080016;28;20457;-78
2023/07/24 02:16:27;;;;;;;11.47;6.77;;;22.20;63.00;;;;;;5086284;28;20496;-78
2023/07/24 02:18:57;;;;;;;12.27;6.50;;;22.20;63.10;;;;;;5092001;28;20477;-78
2023/07/24 02:21:25;;;;;;;10.10;5.90;;;22.10;63.20;;;;;;5081782;28;20958;-78
2023/07/24 02:23:55;;;;;;;13.53;6.87;;;22.10;63.30;;;;;;5085744;28;20972;-77
2023/07/24 02:26:23;;;;;;;11.30;6.33;;;22.00;63.40;;;;;;5090591;28;20462;-78
2023/07/24 02:28:53;;;;;;;11.17;6.47;;;21.90;63.60;;;;;;5086928;28;20819;-80
2023/07/24 02:31:22;;;;;;;21.73;6.53;;;21.90;63.70;;;;;;5083532;28;20480;-77
2023/07/24 02:33:50;;;;;;;12.20;6.90;;;21.80;63.80;;;;;;5086497;28;20796;-77
2023/07/24 02:36:19;;;;;;;13.07;7.40;;;21.80;63.90;;;;;;5079836;28;20496;-77
2023/07/24 02:38:47;;;;;;;12.70;7.03;;;21.70;64.10;;;;;;5080253;28;20503;-77
2023/07/24 02:41:15;;;;;;;12.60;7.13;;;21.70;64.20;;;;;;5084967;28;20457;-78
2023/07/24 02:43:43;;;;;;;14.60;6.40;;;21.60;64.40;;;;;;5086530;28;20499;-78
2023/07/24 02:46:11;;;;;;;12.97;7.20;;;21.60;64.50;;;;;;5084492;28;20892;-78
2023/07/24 02:48:39;;;;;;;13.10;6.60;;;21.50;64.60;;;;;;5087726;28;20484;-79
2023/07/24 02:51:07;;;;;;;11.40;6.40;;;21.40;64.70;;;;;;5084633;28;20960;-77
2023/07/24 02:53:36;;;;;;;12.50;6.70;;;21.30;64.90;;;;;;5082993;28;20955;-79
2023/07/24 02:56:04;;;;;;;13.37;6.63;;;21.20;65.10;;;;;;5079076;28;20492;-78
2023/07/24 02:58:32;;;;;;;11.67;7.40;;;21.20;65.30;;;;;;5081019;28;20465;-77
2023/07/24 03:01:06;;;;;;;13.97;7.57;;;21.20;65.50;;;;;;5079456;28;20481;-77
2023/07/24 03:03:34;;;;;;;13.20;6.57;;;21.10;65.60;;;;;;5084070;28;20472;-78
2023/07/24 03:06:02;;;;;;;11.90;6.50;;;21.10;65.80;;;;;;5079145;28;20549;-77
2023/07/24 03:08:30;;;;;;;13.03;6.80;;;20.90;65.90;;;;;;5083579;28;20564;-77
2023/07/24 03:11:14;;;;;;;14.10;6.83;;;20.80;66.20;;;;;;5082707;28;20507;-77
2023/07/24 03:13:43;;;;;;;11.93;7.03;;;20.80;66.40;;;;;;5084411;28;20553;-77
2023/07/24 03:16:10;;;;;;;18.60;6.53;;;20.70;66.50;;;;;;5082927;28;20501;-77
2023/07/24 03:18:39;;;;;;;10.43;6.13;;;20.70;66.60;;;;;;5086536;28;20887;-78
2023/07/24 03:21:07;;;;;;;10.53;6.50;;;20.70;66.80;;;;;;5094464;28;20579;-77
2023/07/24 03:23:35;;;;;;;12.23;7.20;;;20.70;66.80;;;;;;5087457;28;21219;-78
2023/07/24 03:26:02;;;;;;;13.30;7.63;;;20.80;66.90;;;;;;5081811;28;20474;-77
2023/07/24 03:28:32;;;;;;;11.70;6.57;;;20.80;67.00;;;;;;5104022;28;20540;-78
2023/07/24 03:31:00;;;;;;;11.50;6.63;;;20.80;67.10;;;;;;5083285;28;21084;-78
2023/07/24 03:33:28;;;;;;;12.63;7.53;;;20.90;67.10;;;;;;5087321;28;20456;-79
2023/07/24 03:35:56;;;;;;;11.93;7.07;;;20.80;67.10;;;;;;5080725;28;20563;-78
2023/07/24 03:38:24;;;;;;;10.93;6.67;;;20.80;67.10;;;;;;5082637;28;20490;-78
2023/07/24 03:40:52;;;;;;;13.57;7.20;;;20.80;67.20;;;;;;5090464;28;20491;-78
2023/07/24 03:43:20;;;;;;;16.47;7.60;;;20.80;67.30;;;;;;5083220;28;20816;-78
2023/07/24 03:45:50;;;;;;;12.47;7.57;;;20.80;67.40;;;;;;5079726;28;21297;-77
2023/07/24 03:48:18;;;;;;;11.20;6.80;;;20.90;67.50;;;;;;5080143;28;20834;-79
2023/07/24 03:50:46;;;;;;;12.40;6.80;;;20.80;67.40;;;;;;5083375;28;20539;-78
2023/07/24 03:53:14;;;;;;;12.97;7.60;;;20.80;67.30;;;;;;5084751;28;20469;-78
2023/07/24 03:55:44;;;;;;;11.60;6.53;;;20.80;67.40;;;;;;5079760;28;20457;-77
2023/07/24 03:58:12;;;;;;;12.93;7.40;;;20.70;67.50;;;;;;5088205;28;20538;-79
2023/07/24 04:00:40;;;;;;;11.50;7.07;;;20.70;67.50;;;;;;5081370;28;20505;-79
2023/07/24 04:03:10;;;;;;;13.17;6.87;;;20.60;67.60;;;;;;5084022;28;20502;-77
2023/07/24 04:05:38;;;;;;;11.53;6.37;;;20.60;67.80;;;;;;5089385;28;20452;-79
2023/07/24 04:08:06;;;;;;;14.40;6.30;;;20.60;67.90;;;;;;5082458;28;21356;-77
2023/07/24 04:10:34;;;;;;;12.13;6.67;;;20.60;67.90;;;;;;5092558;28;20544;-78
2023/07/24 04:13:02;;;;;;;10.50;6.17;;;20.70;67.90;;;;;;5091596;28;20484;-78
2023/07/24 04:15:31;;;;;;;14.87;7.73;;;20.60;68.00;;;;;;5088396;28;20464;-78
2023/07/24 04:17:59;;;;;;;10.60;6.20;;;20.60;68.00;;;;;;5099896;28;20492;-77
2023/07/24 04:20:28;;;;;;;11.80;6.97;;;20.60;68.20;;;;;;5087273;28;21038;-78
2023/07/24 04:22:56;;;;;;;12.00;6.80;;;20.70;68.30;;;;;;5086240;28;20962;-78
2023/07/24 04:25:24;;;;;;;15.03;7.63;;;20.70;68.40;;;;;;5090409;28;20468;-78
2023/07/24 04:27:52;;;;;;;13.20;6.80;;;20.80;68.40;;;;;;5084972;28;20468;-78
2023/07/24 04:30:20;;;;;;;10.63;6.67;;;20.80;68.40;;;;;;5087341;28;20452;-78
2023/07/24 04:32:49;;;;;;;13.10;7.13;;;20.80;68.50;;;;;;5087709;28;20511;-78
2023/07/24 04:35:17;;;;;;;14.43;6.83;;;20.80;68.60;;;;;;5081917;28;20460;-78
2023/07/24 04:37:46;;;;;;;11.80;7.00;;;20.90;68.80;;;;;;5087598;28;20467;-78
2023/07/24 04:40:14;;;;;;;12.10;7.10;;;21.00;68.90;;;;;;5086589;28;21228;-78
2023/07/24 04:42:42;;;;;;;14.17;7.57;;;21.10;69.00;;;;;;5085764;28;21258;-79
2023/07/24 04:45:11;;;;;;;13.57;7.40;;;21.20;69.10;;;;;;5088072;28;20986;-79
2023/07/24 04:47:40;;;;;;;13.17;7.37;;;21.30;69.10;;;;;;5082361;28;20966;-78
2023/07/24 04:50:08;;;;;;;12.70;7.23;;;21.40;69.10;;;;;;5086946;28;20464;-78
2023/07/24 04:52:36;;;;;;;12.33;7.57;;;21.40;69.10;;;;;;5085804;28;20460;-78
2023/07/24 04:55:07;;;;;;;12.43;6.70;;;21.50;69.10;;;;;;5085263;28;21026;-78
2023/07/24 04:57:35;;;;;;;13.77;7.63;;;21.60;69.00;;;;;;5085727;28;20457;-79
2023/07/24 05:00:03;;;;;;;10.90;6.53;;;21.70;69.10;;;;;;5086818;28;20467;-78
2023/07/24 05:02:31;;;;;;;16.67;7.67;;;21.80;69.10;;;;;;5093814;28;20523;-78
2023/07/24 05:04:59;;;;;;;11.60;7.20;;;21.90;69.00;;;;;;5081515;28;20452;-78
2023/07/24 05:07:27;;;;;;;12.60;8.00;;;21.90;69.00;;;;;;5085034;28;20559;-78
2023/07/24 05:09:55;;;;;;;11.87;7.20;;;22.00;69.00;;;;;;5088746;28;20886;-78
2023/07/24 05:12:24;;;;;;;10.50;6.50;;;22.00;69.00;;;;;;5087238;28;20457;-78
2023/07/24 05:14:52;;;;;;;15.13;8.50;;;22.10;69.00;;;;;;5083436;28;20493;-77
2023/07/24 05:17:20;;;;;;;14.33;7.07;;;22.20;68.90;;;;;;5088264;28;20773;-78
2023/07/24 05:19:48;;;;;;;15.30;8.23;;;22.30;68.90;;;;;;5088358;28;20457;-78
2023/07/24 05:22:16;;;;;;;13.60;7.80;;;22.30;68.70;;;;;;5086923;28;20492;-78
2023/07/24 05:24:44;;;;;;;14.83;7.73;;;22.40;68.70;;;;;;5087149;28;20456;-77
2023/07/24 05:27:12;;;;;;;12.67;7.90;;;22.40;68.80;;;;;;5080882;28;20485;-78
2023/07/24 05:29:41;;;;;;;12.50;7.77;;;22.50;68.80;;;;;;5083247;28;20460;-79
2023/07/24 05:32:10;;;;;;;11.97;7.47;;;22.70;69.00;;;;;;5082427;28;20567;-78
2023/07/24 05:34:37;;;;;;;13.43;7.27;;;22.90;69.20;;;;;;5086379;28;20567;-79
2023/07/24 05:37:06;;;;;;;15.00;7.90;;;23.30;68.80;;;;;;5085211;28;20981;-78
2023/07/24 05:39:34;;;;;;;13.53;7.53;;;23.60;68.40;;;;;;5083022;28;20446;-77
2023/07/24 05:42:03;;;;;;;12.20;6.90;;;23.90;67.60;;;;;;5082600;28;20490;-78
2023/07/24 05:44:32;;;;;;;12.50;7.60;;;23.90;67.10;;;;;;5080059;28;20488;-78
2023/07/24 05:47:02;;;;;;;14.67;7.70;;;23.80;67.10;;;;;;5081258;28;20868;-78
2023/07/24 05:49:30;;;;;;;11.83;7.00;;;23.70;67.20;;;;;;5081040;28;20830;-78
2023/07/24 05:51:58;;;;;;;13.20;7.97;;;23.60;67.20;;;;;;5086233;28;20547;-79
2023/07/24 05:54:26;;;;;;;13.03;7.30;;;23.60;67.30;;;;;;5077587;28;20568;-78
2023/07/24 05:56:54;;;;;;;14.60;7.33;;;23.50;67.30;;;;;;5080957;28;20465;-78
2023/07/24 05:59:22;;;;;;;14.60;7.83;;;23.50;67.30;;;;;;5080949;28;20486;-78
2023/07/24 06:01:50;;;;;;;13.97;7.60;;;23.40;67.40;;;;;;5084515;28;20778;-78
2023/07/24 06:04:19;;;;;;;12.83;7.80;;;23.40;67.40;;;;;;5076208;28;20498;-78
2023/07/24 06:06:47;;;;;;;12.47;7.40;;;23.40;67.50;;;;;;5081153;28;20489;-78
2023/07/24 06:09:15;;;;;;;13.50;8.10;;;23.40;67.50;;;;;;5082031;28;20536;-78
2023/07/24 06:11:43;;;;;;;14.10;8.47;;;23.30;67.50;;;;;;5087955;28;20830;-78
2023/07/24 06:14:11;;;;;;;18.43;8.63;;;23.20;67.60;;;;;;5085240;28;20471;-78
2023/07/24 06:16:39;;;;;;;15.53;8.13;;;23.20;67.70;;;;;;5083639;28;20461;-78
2023/07/24 06:19:07;;;;;;;14.43;7.13;;;23.20;67.70;;;;;;5104518;28;20456;-79
2023/07/24 06:21:37;;;;;;;13.60;7.37;;;23.20;67.80;;;;;;5083909;28;20538;-79
2023/07/24 06:24:05;;;;;;;12.43;7.30;;;23.20;67.80;;;;;;5086047;28;20457;-78
2023/07/24 06:26:33;;;;;;;12.90;7.90;;;23.20;67.90;;;;;;5083689;28;20546;-78
2023/07/24 06:29:01;;;;;;;14.17;7.40;;;23.20;67.90;;;;;;5086310;28;20552;-78
2023/07/24 06:31:29;;;;;;;13.33;7.80;;;23.20;67.90;;;;;;5080879;28;20561;-78
2023/07/24 06:33:57;;;;;;;13.83;7.20;;;23.30;67.90;;;;;;5084860;28;20475;-78
2023/07/24 06:36:26;;;;;;;13.10;7.60;;;23.30;68.00;;;;;;5083595;28;20469;-78
2023/07/24 06:38:55;;;;;;;16.00;8.23;;;23.30;68.00;;;;;;5087865;28;20449;-79
2023/07/24 06:41:24;;;;;;;16.07;8.40;;;23.30;68.00;;;;;;5082037;28;20500;-78
2023/07/24 06:43:53;;;;;;;13.07;8.13;;;23.30;68.00;;;;;;5083597;28;21002;-78
2023/07/24 06:46:20;;;;;;;13.83;8.43;;;23.30;68.00;;;;;;5083022;28;20460;-79
2023/07/24 06:48:49;;;;;;;16.57;8.50;;;23.40;68.00;;;;;;5084011;28;20457;-78
2023/07/24 06:51:17;;;;;;;14.83;8.10;;;23.40;68.10;;;;;;5084844;28;20459;-78
2023/07/24 06:53:45;;;;;;;17.07;8.50;;;23.40;68.10;;;;;;5087470;28;20468;-78
2023/07/24 06:56:15;;;;;;;14.40;8.77;;;23.40;68.10;;;;;;5081121;28;20461;-78
2023/07/24 06:58:43;;;;;;;13.37;8.93;;;23.40;68.20;;;;;;5087343;28;20445;-78
2023/07/24 07:01:10;;;;;;;13.33;8.30;;;23.40;68.20;;;;;;5083171;28;20495;-78
2023/07/24 07:03:38;;;;;;;14.70;8.53;;;23.40;68.20;;;;;;5080711;28;21004;-79
2023/07/24 07:06:07;;;;;;;18.13;8.43;;;23.40;68.20;;;;;;5086193;28;20480;-78
2023/07/24 07:08:35;;;;;;;18.33;8.13;;;23.40;68.30;;;;;;5083205;28;20449;-79
2023/07/24 07:11:02;;;;;;;12.40;8.00;;;23.40;68.40;;;;;;5082400;28;20461;-78
2023/07/24 07:13:32;;;;;;;15.07;8.80;;;23.40;68.40;;;;;;5082597;28;20459;-77
2023/07/24 07:16:00;;;;;;;20.60;9.53;;;23.40;68.40;;;;;;5083280;28;20491;-78
2023/07/24 07:18:28;;;;;;;15.37;9.23;;;23.40;68.50;;;;;;5082863;28;20471;-79
2023/07/24 07:20:56;;;;;;;15.80;9.33;;;23.50;68.50;;;;;;5085024;28;20515;-78
2023/07/24 07:23:24;;;;;;;13.50;8.27;;;23.50;68.60;;;;;;5079978;28;20486;-78
2023/07/24 07:25:52;;;;;;;13.83;8.90;;;23.60;68.60;;;;;;5086139;28;20463;-78
2023/07/24 07:28:21;;;;;;;15.47;8.43;;;23.60;68.60;;;;;;5083318;28;20488;-79
2023/07/24 07:30:50;;;;;;;14.93;8.77;;;23.70;68.60;;;;;;5089265;28;20506;-78
2023/07/24 07:33:18;;;;;;;15.17;9.30;;;23.70;68.60;;;;;;5083786;28;20481;-79
2023/07/24 07:35:46;;;;;;;13.00;8.60;;;23.70;68.50;;;;;;5085262;28;21398;-79
2023/07/24 07:38:14;;;;;;;12.97;7.87;;;23.80;68.50;;;;;;5082139;28;20449;-78
2023/07/24 07:40:42;;;;;;;14.73;8.40;;;23.80;68.40;;;;;;5088118;28;20472;-79
2023/07/24 07:43:10;;;;;;;16.23;9.00;;;23.90;68.30;;;;;;5083439;28;20554;-78
2023/07/24 07:45:38;;;;;;;15.00;8.20;;;23.90;68.20;;;;;;5084990;28;20466;-77
2023/07/24 07:48:07;;;;;;;14.50;8.83;;;23.90;68.20;;;;;;5083057;28;20527;-78
2023/07/24 07:50:36;;;;;;;14.97;8.93;;;24.00;68.10;;;;;;5090462;28;20547;-77
2023/07/24 07:53:04;;;;;;;16.10;8.20;;;24.00;68.10;;;;;;5080217;28;20449;-79
2023/07/24 07:55:32;;;;;;;14.27;8.57;;;24.10;68.10;;;;;;5078028;28;20569;-77
2023/07/24 07:58:00;;;;;;;16.80;8.77;;;24.20;68.00;;;;;;5078480;28;20496;-78
2023/07/24 08:00:27;;;;;;;13.20;8.40;;;24.20;67.90;;;;;;5082375;28;20541;-78
2023/07/24 08:02:55;;;;;;;14.57;8.33;;;24.30;67.80;;;;;;5076977;28;20481;-77
2023/07/24 08:05:25;;;;;;;17.77;9.50;;;24.30;67.80;;;;;;5080976;28;20456;-77
2023/07/24 08:07:53;;;;;;;13.70;8.03;;;24.40;67.60;;;;;;5080262;28;20449;-77
2023/07/24 08:10:21;;;;;;;15.27;8.80;;;24.40;67.60;;;;;;5080995;28;20557;-77
2023/07/24 08:12:49;;;;;;;14.73;8.57;;;24.50;67.40;;;;;;5082815;28;20464;-77
2023/07/24 08:15:17;;;;;;;15.27;8.50;;;24.50;67.30;;;;;;5082614;28;20599;-77
2023/07/24 08:17:45;;;;;;;17.53;8.63;;;24.50;67.30;;;;;;5083855;28;21057;-77
2023/07/24 08:20:13;;;;;;;13.97;8.67;;;24.60;67.00;;;;;;5087046;28;20457;-77
2023/07/24 08:22:42;;;;;;;14.43;8.77;;;24.60;66.90;;;;;;5088700;28;20843;-77
2023/07/24 08:25:10;;;;;;;14.53;8.73;;;24.60;66.80;;;;;;5083770;28;20461;-77
2023/07/24 08:27:38;;;;;;;12.57;8.77;;;24.70;66.60;;;;;;5097827;28;20488;-77
2023/07/24 08:30:26;;;;;;;16.37;8.87;;;24.70;66.40;;;;;;5089861;28;20481;-80
2023/07/24 08:32:54;;;;;;;15.37;9.93;;;24.60;66.40;;;;;;5077615;28;20453;-77
2023/07/24 08:35:22;;;;;;;15.47;9.00;;;24.60;66.40;;;;;;5086296;28;21019;-77
2023/07/24 08:37:52;;;;;;;15.70;8.20;;;24.60;66.40;;;;;;5103010;28;20908;-78
2023/07/24 08:40:20;;;;;;;13.07;8.37;;;24.60;66.40;;;;;;5085026;28;20482;-77
2023/07/24 08:42:50;;;;;;;13.73;8.70;;;24.60;66.40;;;;;;5085137;28;20471;-77
2023/07/24 08:45:19;;;;;;;16.10;9.03;;;24.60;66.40;;;;;;5084141;28;20462;-76
2023/07/24 08:47:47;;;;;;;12.70;7.70;;;24.60;66.50;;;;;;5075689;28;21192;-77
2023/07/24 08:50:18;;;;;;;14.70;9.00;;;24.60;66.40;;;;;;5083682;28;20982;-77
2023/07/24 08:52:46;;;;;;;13.07;8.20;;;24.60;66.50;;;;;;5080624;28;20457;-77
2023/07/24 08:55:16;;;;;;;14.43;8.70;;;24.60;66.40;;;;;;5084714;28;20463;-77
2023/07/24 08:57:44;;;;;;;11.80;8.40;;;24.70;66.30;;;;;;5086747;28;20463;-78
2023/07/24 09:00:13;;;;;;;17.53;8.50;;;24.70;66.20;;;;;;5087418;28;20564;-79
2023/07/24 09:02:41;;;;;;;13.40;8.27;;;24.70;66.10;;;;;;5087201;28;20563;-78
2023/07/24 09:05:27;;;;;;;17.23;8.90;;;24.70;66.20;;;;;;5083412;28;20456;-78
2023/07/24 09:07:55;;;;;;;13.83;8.20;;;24.70;66.20;;;;;;5086147;28;20501;-79
2023/07/24 09:10:26;;;;;;;13.20;7.80;;;24.60;66.30;;;;;;5085143;28;20458;-77
2023/07/24 09:12:55;;;;;;;13.20;7.30;;;24.60;66.30;;;;;;5079568;28;20462;-77
2023/07/24 09:15:23;;;;;;;15.03;8.53;;;24.60;66.30;;;;;;5086063;28;20440;-80
2023/07/24 09:17:53;;;;;;;12.20;7.47;;;24.70;66.30;;;;;;5087267;28;20652;-78
2023/07/24 09:20:21;;;;;;;14.10;7.60;;;24.70;66.50;;;;;;5088144;28;20441;-79
2023/07/24 09:22:54;;;;;;;14.20;8.17;;;24.70;66.50;;;;;;5084167;28;20480;-78
2023/07/24 09:25:43;;;;;;;13.30;7.80;;;24.70;66.60;;;;;;5085736;28;20463;-78
2023/07/24 09:28:12;;;;;;;14.27;8.47;;;24.70;66.70;;;;;;5080373;28;20501;-78
2023/07/24 09:30:41;;;;;;;15.63;7.47;;;24.70;66.80;;;;;;5084780;28;21211;-78
2023/07/24 09:33:10;;;;;;;17.37;9.20;;;24.70;66.90;;;;;;5083990;28;20883;-78
2023/07/24 09:35:38;;;;;;;13.43;8.53;;;24.70;66.80;;;;;;5084786;28;21341;-79
2023/07/24 09:38:08;;;;;;;15.20;8.13;;;24.60;66.90;;;;;;5083983;28;20455;-78
2023/07/24 09:40:41;;;;;;;13.17;8.00;;;24.70;66.90;;;;;;5088838;28;20540;-79
2023/07/24 09:43:19;;;;;;;12.43;8.27;;;24.70;66.80;;;;;;5086082;28;20481;-79
2023/07/24 09:46:07;;;;;;;13.50;8.90;;;24.70;66.80;;;;;;5085032;28;20962;-78
2023/07/24 09:48:36;;;;;;;14.50;9.07;;;24.70;66.90;;;;;;5083371;28;20477;-79
2023/07/24 09:51:11;;;;;;;12.90;7.60;;;24.80;67.00;;;;;;5086633;28;20459;-79
2023/07/24 09:53:43;;;;;;;14.40;8.27;;;24.90;67.00;;;;;;5085773;28;21015;-79
2023/07/24 09:56:15;;;;;;;14.23;8.07;;;25.00;66.90;;;;;;5085755;28;20457;-78
2023/07/24 09:58:45;;;;;;;12.83;8.57;;;25.00;67.00;;;;;;5088090;28;20575;-78
2023/07/24 10:01:16;;;;;;;12.73;7.63;;;25.10;67.10;;;;;;5088298;28;20526;-79
2023/07/24 10:03:48;;;;;;;14.80;8.90;;;25.20;67.00;;;;;;5083645;28;20465;-78
2023/07/24 10:06:17;;;;;;;15.23;9.20;;;25.20;67.00;;;;;;5085430;28;20736;-78
2023/07/24 10:08:45;;;;;;;16.90;8.00;;;25.30;67.00;;;;;;5083606;28;20500;-78
2023/07/24 10:11:16;;;;;;;13.17;7.70;;;25.40;66.80;;;;;;5085229;28;20856;-79
2023/07/24 10:13:45;;;;;;;15.00;8.50;;;25.40;66.60;;;;;;5081032;28;20457;-79
2023/07/24 10:16:13;;;;;;;14.50;8.80;;;25.50;66.60;;;;;;5084130;28;20449;-78
2023/07/24 10:18:45;;;;;;;16.30;8.77;;;25.50;66.50;;;;;;5082657;28;20457;-79
2023/07/24 10:21:14;;;;;;;13.83;8.00;;;25.60;66.50;;;;;;5084276;28;20556;-79
2023/07/24 10:23:43;;;;;;;12.57;8.53;;;25.60;66.30;;;;;;5081430;28;21055;-79
2023/07/24 10:26:12;;;;;;;12.10;8.03;;;25.60;66.20;;;;;;5085874;28;20437;-78
2023/07/24 10:28:41;;;;;;;18.17;9.20;;;25.60;66.10;;;;;;5082843;28;20538;-78
2023/07/24 10:31:21;;;;;;;14.60;8.37;;;25.50;66.20;;;;;;5086406;28;20476;-78
2023/07/24 10:33:49;;;;;;;14.30;8.10;;;25.50;66.20;;;;;;5076624;28;20518;-79
2023/07/24 10:36:19;;;;;;;13.70;8.47;;;25.50;66.30;;;;;;5079163;28;20470;-78
2023/07/24 10:38:48;;;;;;;13.47;7.53;;;25.40;66.40;;;;;;5077269;28;20557;-78
2023/07/24 10:41:16;;;;;;;16.20;8.83;;;25.40;66.50;;;;;;5085684;28;20449;-78
2023/07/24 10:43:46;;;;;;;14.90;8.23;;;25.40;66.60;;;;;;5085504;28;20559;-78
2023/07/24 10:46:18;;;;;;;11.50;7.60;;;25.50;66.60;;;;;;5085154;28;21058;-79
2023/07/24 10:48:49;;;;;;;13.97;8.80;;;25.50;66.70;;;;;;5091613;28;20471;-78
2023/07/24 10:51:17;;;;;;;16.97;8.93;;;25.50;66.70;;;;;;5086098;28;21262;-78
2023/07/24 10:53:47;;;;;;;12.40;7.80;;;25.50;66.80;;;;;;5081515;28;20464;-79
2023/07/24 10:56:15;;;;;;;15.40;8.67;;;25.50;66.80;;;;;;5081926;28;20580;-79
2023/07/24 10:58:44;;;;;;;13.67;8.23;;;25.60;66.90;;;;;;5082791;28;20456;-80
2023/07/24 11:01:14;;;;;;;12.93;7.70;;;25.60;67.00;;;;;;5079474;28;20572;-79
2023/07/24 11:03:43;;;;;;;13.30;8.10;;;25.60;66.90;;;;;;5078167;28;20862;-78
2023/07/24 11:06:16;;;;;;;12.53;7.83;;;25.60;67.00;;;;;;5083763;28;20567;-79
2023/07/24 11:08:52;;;;;;;12.10;7.20;;;25.50;67.10;;;;;;5085348;28;20529;-78
2023/07/24 11:11:20;;;;;;;16.17;8.20;;;25.50;67.20;;;;;;5086426;28;20457;-78
2023/07/24 11:13:49;;;;;;;13.10;8.20;;;25.50;67.20;;;;;;5080115;28;20449;-79
2023/07/24 11:16:17;;;;;;;16.93;7.77;;;25.40;67.40;;;;;;5084711;28;20452;-79
2023/07/24 11:18:48;;;;;;;14.13;7.97;;;25.40;67.50;;;;;;5079523;28;20456;-78
2023/07/24 11:21:23;;;;;;;12.67;8.10;;;25.30;67.60;;;;;;5078877;28;20503;-79
2023/07/24 11:23:53;;;;;;;12.27;8.00;;;25.30;67.70;;;;;;5081633;28;20486;-78
2023/07/24 11:26:23;;;;;;;11.97;7.33;;;25.30;67.70;;;;;;5083040;28;20461;-78
2023/07/24 11:28:55;;;;;;;13.93;8.07;;;25.30;67.80;;;;;;5084285;28;21009;-78
2023/07/24 11:31:23;;;;;;;11.93;8.07;;;25.30;67.80;;;;;;5081084;28;20505;-78
2023/07/24 11:33:54;;;;;;;13.10;8.40;;;25.30;67.90;;;;;;5080139;28;20454;-78
2023/07/24 11:36:23;;;;;;;11.97;7.80;;;25.30;68.00;;;;;;5077980;28;20485;-78
2023/07/24 11:38:52;;;;;;;13.00;8.10;;;25.30;68.30;;;;;;5086772;28;20463;-79
2023/07/24 11:41:21;;;;;;;13.07;7.83;;;25.30;68.60;;;;;;5083809;28;20464;-79
2023/07/24 11:43:50;;;;;;;12.20;7.20;;;25.20;68.90;;;;;;5084211;28;20480;-78
2023/07/24 11:46:27;;;;;;;13.37;8.33;;;25.20;68.90;;;;;;5084280;28;20441;-78
2023/07/24 11:48:57;;;;;;;19.50;8.83;;;25.20;69.10;;;;;;5083640;28;20465;-78
2023/07/24 11:51:27;;;;;;;14.67;8.20;;;25.30;69.10;;;;;;5084441;28;21003;-78
2023/07/24 11:54:07;;;;;;;16.63;8.23;;;25.20;69.20;;;;;;5079358;28;20459;-78
2023/07/24 11:56:36;;;;;;;17.80;7.77;;;25.30;69.30;;;;;;5082930;28;20445;-77
2023/07/24 11:59:11;;;;;;;14.27;8.17;;;25.30;69.40;;;;;;5080291;28;21150;-77
2023/07/24 12:01:40;;;;;;;11.17;7.43;;;25.30;69.60;;;;;;5083561;28;20519;-80
2023/07/24 12:04:08;;;;;;;18.60;8.67;;;25.30;69.60;;;;;;5085040;28;20556;-78
2023/07/24 12:06:38;;;;;;;14.33;9.57;;;25.40;69.60;;;;;;5085262;28;20440;-79
2023/07/24 12:09:07;;;;;;;15.43;9.03;;;25.40;69.70;;;;;;5084056;28;20547;-78
2023/07/24 12:11:41;;;;;;;14.47;9.10;;;25.40;69.70;;;;;;5081611;28;20531;-78
2023/07/24 12:14:14;;;;;;;27.20;9.53;;;25.40;69.70;;;;;;5080410;28;20543;-78
2023/07/24 12:16:44;;;;;;;18.40;9.67;;;25.30;69.80;;;;;;5093116;28;20460;-78
2023/07/24 12:19:12;;;;;;;14.13;10.07;;;25.30;69.70;;;;;;5081846;28;20452;-78
2023/07/24 12:21:41;;;;;;;20.67;9.40;;;25.30;69.70;;;;;;5082877;28;20968;-79
2023/07/24 12:24:09;;;;;;;13.97;8.40;;;25.30;69.80;;;;;;5084128;28;20491;-78
2023/07/24 12:26:37;;;;;;;11.80;7.90;;;25.30;69.90;;;;;;5082513;28;20459;-78
2023/07/24 12:29:05;;;;;;;15.33;8.20;;;25.30;69.90;;;;;;5082485;28;21026;-78
2023/07/24 12:31:33;;;;;;;14.50;8.47;;;25.40;70.00;;;;;;5086944;28;20494;-78
2023/07/24 12:34:03;;;;;;;14.13;8.63;;;25.40;70.00;;;;;;5089112;28;20453;-79
2023/07/24 12:36:31;;;;;;;16.83;8.30;;;25.50;70.00;;;;;;5084655;28;20485;-79
2023/07/24 12:38:59;;;;;;;11.80;7.73;;;25.50;70.10;;;;;;5087763;28;20982;-78
2023/07/24 12:41:27;;;;;;;14.70;8.97;;;25.60;70.10;;;;;;5089999;28;20492;-79
2023/07/24 12:43:56;;;;;;;15.13;8.17;;;25.70;70.00;;;;;;5084898;28;20456;-79
2023/07/24 12:46:24;;;;;;;14.10;8.70;;;25.70;70.00;;;;;;5087495;28;20480;-78
2023/07/24 12:48:53;;;;;;;12.03;8.00;;;25.80;69.90;;;;;;5086892;28;20455;-78